sensor_id;sensor_type;location;lat;lon;timestamp;pressure;altitude;pressure_sealevel;temperature;humidity
6096;BME280;25081;42.698;23.298;2024-01-10T00:02:03;96371.14;;;-5.47;83.71
6096;BME280;25081;42.698;23.298;2024-01-10T00:04:14;96373.27;;;-5.54;83.67
6096;BME280;25081;42.698;23.298;2024-01-10T00:06:24;96363.69;;;-5.25;85.04
6096;BME280;25081;42.698;23.298;2024-01-10T00:08:35;96363.98;;;-5.29;83.81
6096;BME280;25081;42.698;23.298;2024-01-10T00:10:45;96367.68;;;-5.40;83.17
6096;BME280;25081;42.698;23.298;2024-01-10T00:12:55;96369.27;;;-5.45;83.26
6096;BME280;25081;42.698;23.298;2024-01-10T00:15:07;96367.69;;;-5.26;83.11
6096;BME280;25081;42.698;23.298;2024-01-10T00:17:18;96368.88;;;-5.25;83.01
6096;BME280;25081;42.698;23.298;2024-01-10T00:19:28;96318.16;;;-5.80;82.76
6096;BME280;25081;42.698;23.298;2024-01-10T00:21:39;96369.36;;;-5.54;82.34
6096;BME280;25081;42.698;23.298;2024-01-10T00:23:49;96373.17;;;-5.45;82.25
6096;BME280;25081;42.698;23.298;2024-01-10T00:26:00;96377.05;;;-5.73;83.08
6096;BME280;25081;42.698;23.298;2024-01-10T00:28:10;96376.23;;;-5.67;82.88
6096;BME280;25081;42.698;23.298;2024-01-10T00:30:21;96378.47;;;-5.68;82.96
6096;BME280;25081;42.698;23.298;2024-01-10T00:32:31;96379.58;;;-5.58;83.07
6096;BME280;25081;42.698;23.298;2024-01-10T00:34:41;96381.07;;;-5.39;82.63
6096;BME280;25081;42.698;23.298;2024-01-10T00:36:52;96381.16;;;-5.48;82.80
6096;BME280;25081;42.698;23.298;2024-01-10T00:39:02;96379.65;;;-5.16;83.51
6096;BME280;25081;42.698;23.298;2024-01-10T00:41:13;96382.08;;;-5.28;82.65
6096;BME280;25081;42.698;23.298;2024-01-10T00:43:23;96373.08;;;-5.29;82.47
6096;BME280;25081;42.698;23.298;2024-01-10T00:45:34;96381.91;;;-5.39;81.93
6096;BME280;25081;42.698;23.298;2024-01-10T00:47:44;96386.91;;;-5.36;82.95
6096;BME280;25081;42.698;23.298;2024-01-10T00:49:54;96385.67;;;-5.23;82.86
6096;BME280;25081;42.698;23.298;2024-01-10T00:52:05;96387.94;;;-5.38;82.39
6096;BME280;25081;42.698;23.298;2024-01-10T00:54:16;96385.97;;;-5.63;82.58
6096;BME280;25081;42.698;23.298;2024-01-10T00:56:26;96379.94;;;-5.42;83.00
6096;BME280;25081;42.698;23.298;2024-01-10T00:58:37;96388.10;;;-5.34;82.47
6096;BME280;25081;42.698;23.298;2024-01-10T01:00:47;96381.78;;;-5.09;84.29
6096;BME280;25081;42.698;23.298;2024-01-10T01:02:58;96376.16;;;-4.88;83.22
6096;BME280;25081;42.698;23.298;2024-01-10T01:05:09;96380.59;;;-4.76;82.33
6096;BME280;25081;42.698;23.298;2024-01-10T01:07:19;96378.17;;;-4.72;82.35
6096;BME280;25081;42.698;23.298;2024-01-10T01:09:29;96374.49;;;-4.82;82.19
6096;BME280;25081;42.698;23.298;2024-01-10T01:11:40;96380.27;;;-4.99;80.91
6096;BME280;25081;42.698;23.298;2024-01-10T01:13:51;96370.61;;;-4.97;81.02
6096;BME280;25081;42.698;23.298;2024-01-10T01:16:01;96371.53;;;-4.91;81.25
6096;BME280;25081;42.698;23.298;2024-01-10T01:18:12;96372.11;;;-5.00;81.12
6096;BME280;25081;42.698;23.298;2024-01-10T01:20:22;96375.91;;;-4.98;81.64
6096;BME280;25081;42.698;23.298;2024-01-10T01:22:33;96378.08;;;-5.33;81.08
6096;BME280;25081;42.698;23.298;2024-01-10T01:24:43;96377.25;;;-5.34;81.77
6096;BME280;25081;42.698;23.298;2024-01-10T01:26:54;96378.25;;;-5.22;84.01
6096;BME280;25081;42.698;23.298;2024-01-10T01:29:04;96374.81;;;-5.15;82.32
6096;BME280;25081;42.698;23.298;2024-01-10T01:31:15;96367.74;;;-4.99;82.57
6096;BME280;25081;42.698;23.298;2024-01-10T01:33:25;96366.50;;;-4.86;82.82
6096;BME280;25081;42.698;23.298;2024-01-10T01:35:35;96358.80;;;-4.88;82.59
6096;BME280;25081;42.698;23.298;2024-01-10T01:37:46;96357.41;;;-4.59;82.77
6096;BME280;25081;42.698;23.298;2024-01-10T01:39:56;96353.41;;;-4.58;81.74
6096;BME280;25081;42.698;23.298;2024-01-10T01:42:07;96355.90;;;-4.56;81.86
6096;BME280;25081;42.698;23.298;2024-01-10T01:44:17;96356.81;;;-4.50;82.64
6096;BME280;25081;42.698;23.298;2024-01-10T01:46:28;96353.72;;;-4.63;81.29
6096;BME280;25081;42.698;23.298;2024-01-10T01:48:38;96360.86;;;-4.66;81.23
6096;BME280;25081;42.698;23.298;2024-01-10T01:50:50;96352.56;;;-4.58;80.52
6096;BME280;25081;42.698;23.298;2024-01-10T01:53:00;96367.20;;;-4.70;80.13
6096;BME280;25081;42.698;23.298;2024-01-10T01:55:10;96369.11;;;-4.59;81.44
6096;BME280;25081;42.698;23.298;2024-01-10T01:57:21;96355.38;;;-4.62;82.54
6096;BME280;25081;42.698;23.298;2024-01-10T01:59:31;96353.38;;;-4.51;81.29
6096;BME280;25081;42.698;23.298;2024-01-10T02:01:41;96356.63;;;-4.54;81.70
6096;BME280;25081;42.698;23.298;2024-01-10T02:03:52;96342.89;;;-4.56;80.93
6096;BME280;25081;42.698;23.298;2024-01-10T02:06:02;96344.98;;;-4.42;81.94
6096;BME280;25081;42.698;23.298;2024-01-10T02:08:13;96335.14;;;-4.44;80.62
6096;BME280;25081;42.698;23.298;2024-01-10T02:10:23;96335.22;;;-4.45;81.33
6096;BME280;25081;42.698;23.298;2024-01-10T02:12:34;96338.28;;;-4.66;78.85
6096;BME280;25081;42.698;23.298;2024-01-10T02:14:44;96333.98;;;-4.79;78.80
6096;BME280;25081;42.698;23.298;2024-01-10T02:16:54;96337.19;;;-4.69;78.80
6096;BME280;25081;42.698;23.298;2024-01-10T02:19:19;96246.73;;;-5.17;78.36
6096;BME280;25081;42.698;23.298;2024-01-10T02:21:30;96338.42;;;-4.54;77.34
6096;BME280;25081;42.698;23.298;2024-01-10T02:23:40;96335.28;;;-4.79;77.33
6096;BME280;25081;42.698;23.298;2024-01-10T02:25:51;96338.61;;;-4.77;80.21
6096;BME280;25081;42.698;23.298;2024-01-10T02:28:01;96339.42;;;-4.70;79.05
6096;BME280;25081;42.698;23.298;2024-01-10T02:30:12;96339.11;;;-4.65;78.31
6096;BME280;25081;42.698;23.298;2024-01-10T02:32:22;96332.68;;;-4.79;76.49
6096;BME280;25081;42.698;23.298;2024-01-10T02:34:33;96332.11;;;-4.77;76.47
6096;BME280;25081;42.698;23.298;2024-01-10T02:36:43;96336.98;;;-4.66;75.75
6096;BME280;25081;42.698;23.298;2024-01-10T02:38:54;96334.93;;;-4.61;78.00
6096;BME280;25081;42.698;23.298;2024-01-10T02:41:04;96329.66;;;-4.73;75.04
6096;BME280;25081;42.698;23.298;2024-01-10T02:43:15;96334.56;;;-4.88;75.94
6096;BME280;25081;42.698;23.298;2024-01-10T02:45:26;96330.08;;;-4.79;77.46
6096;BME280;25081;42.698;23.298;2024-01-10T02:47:36;96335.30;;;-4.86;76.58
6096;BME280;25081;42.698;23.298;2024-01-10T02:49:47;96339.67;;;-4.94;77.80
6096;BME280;25081;42.698;23.298;2024-01-10T02:51:57;96342.64;;;-4.93;76.18
6096;BME280;25081;42.698;23.298;2024-01-10T02:54:07;96338.94;;;-4.96;75.68
6096;BME280;25081;42.698;23.298;2024-01-10T02:56:18;96339.05;;;-4.98;77.29
6096;BME280;25081;42.698;23.298;2024-01-10T02:58:28;96340.75;;;-4.84;76.71
6096;BME280;25081;42.698;23.298;2024-01-10T03:00:39;96340.88;;;-4.93;76.83
6096;BME280;25081;42.698;23.298;2024-01-10T03:02:49;96338.42;;;-5.01;75.19
6096;BME280;25081;42.698;23.298;2024-01-10T03:05:00;96340.36;;;-5.12;74.84
6096;BME280;25081;42.698;23.298;2024-01-10T03:07:10;96340.97;;;-5.21;76.48
6096;BME280;25081;42.698;23.298;2024-01-10T03:09:22;96331.56;;;-5.09;78.88
6096;BME280;25081;42.698;23.298;2024-01-10T03:11:31;96329.95;;;-5.05;77.12
6096;BME280;25081;42.698;23.298;2024-01-10T03:13:43;96329.23;;;-5.07;77.12
6096;BME280;25081;42.698;23.298;2024-01-10T03:15:52;96333.06;;;-5.20;76.38
6096;BME280;25081;42.698;23.298;2024-01-10T03:18:03;96335.20;;;-5.26;77.25
6096;BME280;25081;42.698;23.298;2024-01-10T03:20:14;96338.07;;;-5.24;77.26
6096;BME280;25081;42.698;23.298;2024-01-10T03:22:24;96343.83;;;-5.19;76.28
6096;BME280;25081;42.698;23.298;2024-01-10T03:24:34;96337.86;;;-5.13;77.31
6096;BME280;25081;42.698;23.298;2024-01-10T03:26:45;96341.18;;;-4.97;74.94
6096;BME280;25081;42.698;23.298;2024-01-10T03:28:55;96346.84;;;-4.98;74.55
6096;BME280;25081;42.698;23.298;2024-01-10T03:31:06;96345.18;;;-4.99;75.00
6096;BME280;25081;42.698;23.298;2024-01-10T03:33:16;96345.90;;;-4.90;75.37
6096;BME280;25081;42.698;23.298;2024-01-10T03:35:27;96349.70;;;-4.88;74.30
6096;BME280;25081;42.698;23.298;2024-01-10T03:37:37;96340.72;;;-4.70;77.62
6096;BME280;25081;42.698;23.298;2024-01-10T03:39:48;96346.64;;;-4.61;76.54
6096;BME280;25081;42.698;23.298;2024-01-10T03:41:58;96351.27;;;-4.58;76.31
6096;BME280;25081;42.698;23.298;2024-01-10T03:44:09;96342.61;;;-4.79;74.34
6096;BME280;25081;42.698;23.298;2024-01-10T03:46:19;96347.81;;;-4.79;74.01
6096;BME280;25081;42.698;23.298;2024-01-10T03:48:30;96344.16;;;-4.69;74.91
6096;BME280;25081;42.698;23.298;2024-01-10T03:50:40;96345.59;;;-4.58;76.36
6096;BME280;25081;42.698;23.298;2024-01-10T03:52:50;96347.61;;;-4.49;76.82
6096;BME280;25081;42.698;23.298;2024-01-10T03:55:01;96347.05;;;-4.54;75.04
6096;BME280;25081;42.698;23.298;2024-01-10T03:57:12;96344.45;;;-4.54;74.38
6096;BME280;25081;42.698;23.298;2024-01-10T03:59:22;96347.29;;;-4.44;75.99
6096;BME280;25081;42.698;23.298;2024-01-10T04:01:32;96348.05;;;-4.42;77.02
6096;BME280;25081;42.698;23.298;2024-01-10T04:03:43;96352.11;;;-4.38;77.92
6096;BME280;25081;42.698;23.298;2024-01-10T04:05:53;96349.22;;;-4.34;76.87
6096;BME280;25081;42.698;23.298;2024-01-10T04:08:04;96343.91;;;-4.52;75.44
6096;BME280;25081;42.698;23.298;2024-01-10T04:10:15;96352.55;;;-4.51;75.30
6096;BME280;25081;42.698;23.298;2024-01-10T04:12:25;96356.70;;;-4.69;75.20
6096;BME280;25081;42.698;23.298;2024-01-10T04:14:36;96357.09;;;-4.55;76.79
6096;BME280;25081;42.698;23.298;2024-01-10T04:16:46;96350.45;;;-4.39;76.55
6096;BME280;25081;42.698;23.298;2024-01-10T04:18:57;96360.94;;;-4.34;77.54
6096;BME280;25081;42.698;23.298;2024-01-10T04:21:07;96354.14;;;-4.36;76.22
6096;BME280;25081;42.698;23.298;2024-01-10T04:23:17;96354.55;;;-4.42;75.59
6096;BME280;25081;42.698;23.298;2024-01-10T04:25:28;96359.55;;;-4.39;75.74
6096;BME280;25081;42.698;23.298;2024-01-10T04:27:38;96365.12;;;-4.38;76.69
6096;BME280;25081;42.698;23.298;2024-01-10T04:29:49;96360.84;;;-4.59;74.81
6096;BME280;25081;42.698;23.298;2024-01-10T04:31:59;96365.48;;;-4.64;74.72
6096;BME280;25081;42.698;23.298;2024-01-10T04:34:10;96371.94;;;-4.70;76.78
6096;BME280;25081;42.698;23.298;2024-01-10T04:36:20;96372.28;;;-4.62;77.64
6096;BME280;25081;42.698;23.298;2024-01-10T04:38:30;96372.95;;;-4.45;76.42
6096;BME280;25081;42.698;23.298;2024-01-10T04:40:41;96375.76;;;-4.48;77.38
6096;BME280;25081;42.698;23.298;2024-01-10T04:42:52;96378.42;;;-4.63;75.83
6096;BME280;25081;42.698;23.298;2024-01-10T04:45:02;96380.57;;;-4.69;75.73
6096;BME280;25081;42.698;23.298;2024-01-10T04:47:13;96387.75;;;-4.73;76.83
6096;BME280;25081;42.698;23.298;2024-01-10T04:49:23;96384.94;;;-4.70;76.89
6096;BME280;25081;42.698;23.298;2024-01-10T04:51:34;96395.36;;;-4.43;77.21
6096;BME280;25081;42.698;23.298;2024-01-10T04:53:45;96388.68;;;-4.54;77.74
6096;BME280;25081;42.698;23.298;2024-01-10T04:55:55;96389.20;;;-4.62;77.20
6096;BME280;25081;42.698;23.298;2024-01-10T04:58:06;96400.48;;;-4.55;77.97
6096;BME280;25081;42.698;23.298;2024-01-10T05:00:17;96394.16;;;-4.78;73.97
6096;BME280;25081;42.698;23.298;2024-01-10T05:02:27;96398.41;;;-4.63;75.29
6096;BME280;25081;42.698;23.298;2024-01-10T05:04:38;96397.83;;;-4.61;74.59
6096;BME280;25081;42.698;23.298;2024-01-10T05:06:48;96395.41;;;-4.64;73.72
6096;BME280;25081;42.698;23.298;2024-01-10T05:08:59;96398.22;;;-4.74;73.55
6096;BME280;25081;42.698;23.298;2024-01-10T05:11:09;96391.21;;;-4.52;74.21
6096;BME280;25081;42.698;23.298;2024-01-10T05:13:20;96396.59;;;-4.55;73.01
6096;BME280;25081;42.698;23.298;2024-01-10T05:15:30;96395.73;;;-4.49;72.53
6096;BME280;25081;42.698;23.298;2024-01-10T05:17:41;96397.61;;;-4.51;72.78
6096;BME280;25081;42.698;23.298;2024-01-10T05:19:51;96398.33;;;-4.42;72.71
6096;BME280;25081;42.698;23.298;2024-01-10T05:22:02;96399.98;;;-4.41;73.88
6096;BME280;25081;42.698;23.298;2024-01-10T05:24:12;96395.97;;;-1.89;93.58
6096;BME280;25081;42.698;23.298;2024-01-10T05:26:23;96388.89;;;-0.10;92.43
6096;BME280;25081;42.698;23.298;2024-01-10T05:28:33;96389.10;;;-0.34;72.20
6096;BME280;25081;42.698;23.298;2024-01-10T05:30:44;96393.45;;;-1.50;67.41
6096;BME280;25081;42.698;23.298;2024-01-10T05:32:54;96388.95;;;-1.31;65.83
6096;BME280;25081;42.698;23.298;2024-01-10T05:35:05;96401.57;;;-3.09;65.61
6096;BME280;25081;42.698;23.298;2024-01-10T05:37:16;96406.98;;;-3.00;66.71
6096;BME280;25081;42.698;23.298;2024-01-10T05:39:26;96407.75;;;-3.61;67.21
6096;BME280;25081;42.698;23.298;2024-01-10T05:41:37;96415.71;;;-3.70;68.00
6096;BME280;25081;42.698;23.298;2024-01-10T05:43:48;96418.53;;;-3.73;70.24
6096;BME280;25081;42.698;23.298;2024-01-10T05:46:00;96418.93;;;-3.79;71.30
6096;BME280;25081;42.698;23.298;2024-01-10T05:48:10;96408.25;;;-3.94;69.97
6096;BME280;25081;42.698;23.298;2024-01-10T05:50:21;96409.95;;;-3.88;68.27
6096;BME280;25081;42.698;23.298;2024-01-10T05:52:31;96412.57;;;-4.08;66.53
6096;BME280;25081;42.698;23.298;2024-01-10T05:54:41;96415.22;;;-3.95;69.83
6096;BME280;25081;42.698;23.298;2024-01-10T05:56:52;96419.48;;;-4.34;66.10
6096;BME280;25081;42.698;23.298;2024-01-10T05:59:02;96418.25;;;-4.08;69.44
6096;BME280;25081;42.698;23.298;2024-01-10T06:01:13;96419.33;;;-4.25;69.89
6096;BME280;25081;42.698;23.298;2024-01-10T06:03:23;96421.91;;;-4.38;65.91
6096;BME280;25081;42.698;23.298;2024-01-10T06:05:34;96417.66;;;0.39;82.06
6096;BME280;25081;42.698;23.298;2024-01-10T06:07:45;96401.27;;;2.66;70.67
6096;BME280;25081;42.698;23.298;2024-01-10T06:09:55;96395.37;;;3.97;64.91
6096;BME280;25081;42.698;23.298;2024-01-10T06:12:07;96414.59;;;-0.36;52.73
6096;BME280;25081;42.698;23.298;2024-01-10T06:14:17;96423.77;;;-2.60;58.22
6096;BME280;25081;42.698;23.298;2024-01-10T06:16:28;96431.28;;;-2.86;64.46
6096;BME280;25081;42.698;23.298;2024-01-10T06:18:38;96435.66;;;-3.18;63.56
6096;BME280;25081;42.698;23.298;2024-01-10T06:20:49;96431.45;;;-3.71;62.58
6096;BME280;25081;42.698;23.298;2024-01-10T06:22:59;96439.56;;;-3.56;63.90
6096;BME280;25081;42.698;23.298;2024-01-10T06:25:10;96422.08;;;0.07;79.81
6096;BME280;25081;42.698;23.298;2024-01-10T06:27:20;96419.28;;;3.54;66.88
6096;BME280;25081;42.698;23.298;2024-01-10T06:29:31;96412.50;;;4.68;61.76
6096;BME280;25081;42.698;23.298;2024-01-10T06:31:41;96420.33;;;5.30;57.45
6096;BME280;25081;42.698;23.298;2024-01-10T06:33:52;96415.28;;;6.29;51.75
6096;BME280;25081;42.698;23.298;2024-01-10T06:36:02;96414.11;;;5.77;48.57
6096;BME280;25081;42.698;23.298;2024-01-10T06:38:13;96431.09;;;1.93;47.60
6096;BME280;25081;42.698;23.298;2024-01-10T06:40:23;96440.86;;;-0.20;51.60
6096;BME280;25081;42.698;23.298;2024-01-10T06:42:33;96449.31;;;-1.51;54.83
6096;BME280;25081;42.698;23.298;2024-01-10T06:44:44;96452.00;;;-1.12;76.51
6096;BME280;25081;42.698;23.298;2024-01-10T06:46:54;96450.89;;;-0.31;80.67
6096;BME280;25081;42.698;23.298;2024-01-10T06:49:05;96453.28;;;-1.34;66.21
6096;BME280;25081;42.698;23.298;2024-01-10T06:51:15;96452.80;;;2.68;89.72
6096;BME280;25081;42.698;23.298;2024-01-10T06:53:25;96437.19;;;4.41;79.84
6096;BME280;25081;42.698;23.298;2024-01-10T06:55:36;96447.73;;;1.93;49.32
6096;BME280;25081;42.698;23.298;2024-01-10T06:57:46;96460.11;;;-0.93;53.81
6096;BME280;25081;42.698;23.298;2024-01-10T06:59:57;96464.30;;;-2.07;57.20
6096;BME280;25081;42.698;23.298;2024-01-10T07:02:07;96476.30;;;-2.77;58.66
6096;BME280;25081;42.698;23.298;2024-01-10T07:04:18;96476.95;;;-3.25;60.58
6096;BME280;25081;42.698;23.298;2024-01-10T07:06:28;96480.75;;;-3.10;61.13
6096;BME280;25081;42.698;23.298;2024-01-10T07:08:39;96478.03;;;-3.09;61.02
6096;BME280;25081;42.698;23.298;2024-01-10T07:10:49;96483.31;;;-3.03;61.89
6096;BME280;25081;42.698;23.298;2024-01-10T07:13:00;96464.15;;;-0.72;81.55
6096;BME280;25081;42.698;23.298;2024-01-10T07:15:11;96458.54;;;2.77;76.02
6096;BME280;25081;42.698;23.298;2024-01-10T07:17:21;96407.34;;;0.89;51.96
6096;BME280;25081;42.698;23.298;2024-01-10T07:19:31;96476.00;;;-1.18;55.95
6096;BME280;25081;42.698;23.298;2024-01-10T07:21:42;96479.63;;;-1.78;54.90
6096;BME280;25081;42.698;23.298;2024-01-10T07:23:52;96487.41;;;-2.68;57.44
6096;BME280;25081;42.698;23.298;2024-01-10T07:26:03;96485.90;;;-2.47;56.44
6096;BME280;25081;42.698;23.298;2024-01-10T07:28:14;96487.60;;;-2.58;56.43
6096;BME280;25081;42.698;23.298;2024-01-10T07:30:24;96491.80;;;-2.14;58.33
6096;BME280;25081;42.698;23.298;2024-01-10T07:32:35;96487.66;;;-1.92;55.49
6096;BME280;25081;42.698;23.298;2024-01-10T07:34:45;96492.14;;;-1.70;57.81
6096;BME280;25081;42.698;23.298;2024-01-10T07:36:56;96489.95;;;-1.53;57.26
6096;BME280;25081;42.698;23.298;2024-01-10T07:39:06;96488.53;;;-1.81;52.86
6096;BME280;25081;42.698;23.298;2024-01-10T07:41:17;96493.81;;;-1.34;55.94
6096;BME280;25081;42.698;23.298;2024-01-10T07:43:27;96499.05;;;-1.29;52.78
6096;BME280;25081;42.698;23.298;2024-01-10T07:45:37;96496.45;;;-1.18;51.57
6096;BME280;25081;42.698;23.298;2024-01-10T07:47:48;96493.08;;;-1.42;51.76
6096;BME280;25081;42.698;23.298;2024-01-10T07:49:58;96491.60;;;-1.11;52.13
6096;BME280;25081;42.698;23.298;2024-01-10T07:52:09;96494.53;;;-1.27;50.61
6096;BME280;25081;42.698;23.298;2024-01-10T07:54:19;96493.41;;;-1.06;51.46
6096;BME280;25081;42.698;23.298;2024-01-10T07:56:30;96496.77;;;-0.76;49.50
6096;BME280;25081;42.698;23.298;2024-01-10T07:58:40;96493.05;;;-0.17;49.73
6096;BME280;25081;42.698;23.298;2024-01-10T08:00:51;96485.40;;;0.61;47.86
6096;BME280;25081;42.698;23.298;2024-01-10T08:03:01;96483.28;;;0.75;49.39
6096;BME280;25081;42.698;23.298;2024-01-10T08:05:11;96492.38;;;0.13;45.99
6096;BME280;25081;42.698;23.298;2024-01-10T08:07:22;96491.38;;;-0.24;50.73
6096;BME280;25081;42.698;23.298;2024-01-10T08:09:33;96492.08;;;0.27;47.14
6096;BME280;25081;42.698;23.298;2024-01-10T08:11:44;96484.84;;;1.44;45.50
6096;BME280;25081;42.698;23.298;2024-01-10T08:13:54;96476.22;;;2.81;42.36
6096;BME280;25081;42.698;23.298;2024-01-10T08:16:06;96483.59;;;3.34;40.63
6096;BME280;25081;42.698;23.298;2024-01-10T08:18:17;96487.59;;;2.62;41.38
6096;BME280;25081;42.698;23.298;2024-01-10T08:20:28;96486.67;;;2.48;42.54
6096;BME280;25081;42.698;23.298;2024-01-10T08:22:38;96492.52;;;2.07;42.02
6096;BME280;25081;42.698;23.298;2024-01-10T08:24:48;96499.53;;;1.47;46.48
6096;BME280;25081;42.698;23.298;2024-01-10T08:26:59;96480.14;;;5.27;37.81
6096;BME280;25081;42.698;23.298;2024-01-10T08:29:09;96466.08;;;7.59;35.02
6096;BME280;25081;42.698;23.298;2024-01-10T08:31:20;96464.67;;;9.22;30.07
6096;BME280;25081;42.698;23.298;2024-01-10T08:33:30;96467.62;;;8.89;29.44
6096;BME280;25081;42.698;23.298;2024-01-10T08:35:41;96472.84;;;7.69;31.17
6096;BME280;25081;42.698;23.298;2024-01-10T08:37:51;96465.28;;;9.47;28.26
6096;BME280;25081;42.698;23.298;2024-01-10T08:42:50;96457.66;;;12.43;26.62
6096;BME280;25081;42.698;23.298;2024-01-10T08:45:00;96457.11;;;12.61;26.11
6096;BME280;25081;42.698;23.298;2024-01-10T08:47:10;96463.36;;;12.51;25.29
6096;BME280;25081;42.698;23.298;2024-01-10T08:49:21;96458.45;;;13.05;24.72
6096;BME280;25081;42.698;23.298;2024-01-10T08:51:31;96468.64;;;12.55;25.19
6096;BME280;25081;42.698;23.298;2024-01-10T08:53:42;96473.78;;;11.91;23.29
6096;BME280;25081;42.698;23.298;2024-01-10T08:55:52;96460.14;;;12.45;22.71
6096;BME280;25081;42.698;23.298;2024-01-10T08:58:04;96464.42;;;13.07;22.70
6096;BME280;25081;42.698;23.298;2024-01-10T09:00:17;96456.39;;;12.63;24.04
6096;BME280;25081;42.698;23.298;2024-01-10T09:02:28;96459.31;;;12.38;23.33
6096;BME280;25081;42.698;23.298;2024-01-10T09:04:38;96447.02;;;12.94;23.07
6096;BME280;25081;42.698;23.298;2024-01-10T09:06:49;96447.02;;;12.94;23.07
6096;BME280;25081;42.698;23.298;2024-01-10T09:08:59;96437.86;;;14.14;21.94
6096;BME280;25081;42.698;23.298;2024-01-10T09:11:10;96437.86;;;14.14;21.94
6096;BME280;25081;42.698;23.298;2024-01-10T09:13:20;96463.02;;;9.21;25.75
6096;BME280;25081;42.698;23.298;2024-01-10T09:15:31;96458.59;;;10.25;26.97
6096;BME280;25081;42.698;23.298;2024-01-10T09:17:42;96456.77;;;10.83;25.16
6096;BME280;25081;42.698;23.298;2024-01-10T09:19:52;96461.61;;;8.92;27.91
6096;BME280;25081;42.698;23.298;2024-01-10T09:22:03;96463.77;;;9.63;28.00
6096;BME280;25081;42.698;23.298;2024-01-10T09:24:14;96451.44;;;11.43;27.24
6096;BME280;25081;42.698;23.298;2024-01-10T09:26:24;96445.10;;;12.68;25.91
6096;BME280;25081;42.698;23.298;2024-01-10T09:28:34;96443.13;;;12.28;24.57
6096;BME280;25081;42.698;23.298;2024-01-10T09:30:45;96454.22;;;10.64;25.92
6096;BME280;25081;42.698;23.298;2024-01-10T09:32:55;96448.77;;;10.94;27.16
6096;BME280;25081;42.698;23.298;2024-01-10T09:35:07;96448.21;;;12.78;25.90
6096;BME280;25081;42.698;23.298;2024-01-10T09:37:18;96444.36;;;13.73;23.82
6096;BME280;25081;42.698;23.298;2024-01-10T09:39:29;96443.16;;;13.23;23.30
6096;BME280;25081;42.698;23.298;2024-01-10T09:41:43;96433.37;;;13.94;22.25
6096;BME280;25081;42.698;23.298;2024-01-10T09:43:51;96433.45;;;14.32;22.86
6096;BME280;25081;42.698;23.298;2024-01-10T09:46:02;96435.98;;;13.85;23.11
6096;BME280;25081;42.698;23.298;2024-01-10T09:48:13;96437.80;;;13.23;22.35
6096;BME280;25081;42.698;23.298;2024-01-10T09:50:23;96436.84;;;12.56;22.05
6096;BME280;25081;42.698;23.298;2024-01-10T09:52:36;96440.19;;;11.37;22.81
6096;BME280;25081;42.698;23.298;2024-01-10T09:54:45;96438.17;;;11.39;23.08
6096;BME280;25081;42.698;23.298;2024-01-10T09:56:55;96433.22;;;12.97;24.51
6096;BME280;25081;42.698;23.298;2024-01-10T09:59:06;96449.83;;;8.90;25.57
6096;BME280;25081;42.698;23.298;2024-01-10T10:01:16;96435.10;;;11.03;26.19
6096;BME280;25081;42.698;23.298;2024-01-10T10:03:27;96428.79;;;12.19;24.36
6096;BME280;25081;42.698;23.298;2024-01-10T10:05:38;96416.83;;;12.39;23.89
6096;BME280;25081;42.698;23.298;2024-01-10T10:07:49;96421.48;;;11.09;25.56
6096;BME280;25081;42.698;23.298;2024-01-10T10:09:58;96435.50;;;6.75;29.01
6096;BME280;25081;42.698;23.298;2024-01-10T10:12:09;96440.92;;;5.18;34.26
6096;BME280;25081;42.698;23.298;2024-01-10T10:14:20;96443.05;;;2.55;35.54
6096;BME280;25081;42.698;23.298;2024-01-10T10:16:30;96449.67;;;1.05;39.52
6096;BME280;25081;42.698;23.298;2024-01-10T10:18:41;96454.14;;;0.05;43.44
6096;BME280;25081;42.698;23.298;2024-01-10T10:21:04;96442.73;;;-0.66;45.15
6096;BME280;25081;42.698;23.298;2024-01-10T10:23:14;96433.61;;;-0.22;46.59
6096;BME280;25081;42.698;23.298;2024-01-10T10:25:25;96444.61;;;-0.51;49.15
6096;BME280;25081;42.698;23.298;2024-01-10T10:27:37;96437.09;;;-0.39;49.66
6096;BME280;25081;42.698;23.298;2024-01-10T10:29:48;96429.88;;;-0.57;49.77
6096;BME280;25081;42.698;23.298;2024-01-10T10:31:58;96434.03;;;-0.77;48.93
6096;BME280;25081;42.698;23.298;2024-01-10T10:34:08;96421.42;;;-0.55;50.65
6096;BME280;25081;42.698;23.298;2024-01-10T10:36:19;96419.36;;;-0.35;52.84
6096;BME280;25081;42.698;23.298;2024-01-10T10:38:29;96412.11;;;0.01;51.69
6096;BME280;25081;42.698;23.298;2024-01-10T10:40:40;96409.23;;;-0.34;50.39
6096;BME280;25081;42.698;23.298;2024-01-10T10:42:53;96410.68;;;-0.04;52.50
6096;BME280;25081;42.698;23.298;2024-01-10T10:45:02;96404.70;;;-0.32;49.38
6096;BME280;25081;42.698;23.298;2024-01-10T10:47:12;96403.09;;;-0.12;50.64
6096;BME280;25081;42.698;23.298;2024-01-10T10:49:28;96397.13;;;-0.09;51.13
6096;BME280;25081;42.698;23.298;2024-01-10T10:51:35;96390.88;;;1.18;50.46
6096;BME280;25081;42.698;23.298;2024-01-10T10:53:45;96381.18;;;2.88;46.07
6096;BME280;25081;42.698;23.298;2024-01-10T10:55:56;96369.77;;;4.73;43.02
6096;BME280;25081;42.698;23.298;2024-01-10T10:58:06;96371.84;;;4.83;40.98
6096;BME280;25081;42.698;23.298;2024-01-10T11:00:18;96364.16;;;4.98;38.93
6096;BME280;25081;42.698;23.298;2024-01-10T11:02:28;96358.95;;;5.48;40.40
6096;BME280;25081;42.698;23.298;2024-01-10T11:04:39;96357.05;;;5.79;37.98
6096;BME280;25081;42.698;23.298;2024-01-10T11:06:49;96359.77;;;4.54;39.41
6096;BME280;25081;42.698;23.298;2024-01-10T11:09:00;96352.05;;;6.22;38.22
6096;BME280;25081;42.698;23.298;2024-01-10T11:11:14;96341.80;;;6.43;37.08
6096;BME280;25081;42.698;23.298;2024-01-10T11:13:28;96344.42;;;5.98;36.10
6096;BME280;25081;42.698;23.298;2024-01-10T11:15:52;96344.82;;;5.27;38.29
6096;BME280;25081;42.698;23.298;2024-01-10T11:18:25;96338.84;;;5.67;38.38
6096;BME280;25081;42.698;23.298;2024-01-10T11:20:53;96341.75;;;5.94;37.55
6096;BME280;25081;42.698;23.298;2024-01-10T11:23:12;96345.61;;;4.89;37.98
6096;BME280;25081;42.698;23.298;2024-01-10T11:25:22;96342.34;;;2.76;40.29
6096;BME280;25081;42.698;23.298;2024-01-10T11:27:33;96339.72;;;3.41;43.08
6096;BME280;25081;42.698;23.298;2024-01-10T11:29:45;96334.42;;;4.66;41.02
6096;BME280;25081;42.698;23.298;2024-01-10T11:31:54;96327.14;;;5.24;38.89
6096;BME280;25081;42.698;23.298;2024-01-10T11:34:04;96326.30;;;4.37;40.04
6096;BME280;25081;42.698;23.298;2024-01-10T11:36:15;96340.06;;;1.38;41.31
6096;BME280;25081;42.698;23.298;2024-01-10T11:38:27;96334.95;;;1.36;44.01